sensor_id;sensor_type;location;lat;lon;timestamp;P1;durP1;ratioP1;P2;durP2;ratioP2
17414;SDS011;8825;48.086;16.426;2023-07-29T00:00:56;3.33;;;3.03;;
17414;SDS011;8825;48.086;16.426;2023-07-29T00:03:23;3.30;;;3.00;;
17414;SDS011;8825;48.086;16.426;2023-07-29T00:05:51;3.13;;;2.90;;
17414;SDS011;8825;48.086;16.426;2023-07-29T00:08:18;3.37;;;3.17;;
17414;SDS011;8825;48.086;16.426;2023-07-29T00:10:46;3.20;;;3.00;;
17414;SDS011;8825;48.086;16.426;2023-07-29T00:13:14;3.20;;;3.00;;
17414;SDS011;8825;48.086;16.426;2023-07-29T00:15:41;3.07;;;2.77;;
17414;SDS011;8825;48.086;16.426;2023-07-29T00:18:08;2.77;;;2.57;;
17414;SDS011;8825;48.086;16.426;2023-07-29T00:20:36;3.73;;;3.03;;
17414;SDS011;8825;48.086;16.426;2023-07-29T00:23:04;3.47;;;3.03;;
17414;SDS011;8825;48.086;16.426;2023-07-29T00:25:31;2.90;;;2.70;;
17414;SDS011;8825;48.086;16.426;2023-07-29T00:27:59;3.33;;;3.03;;
17414;SDS011;8825;48.086;16.426;2023-07-29T00:30:26;2.93;;;2.73;;
17414;SDS011;8825;48.086;16.426;2023-07-29T00:32:54;3.27;;;2.97;;
17414;SDS011;8825;48.086;16.426;2023-07-29T00:35:21;3.13;;;2.90;;
17414;SDS011;8825;48.086;16.426;2023-07-29T00:37:49;4.07;;;3.40;;
17414;SDS011;8825;48.086;16.426;2023-07-29T00:40:19;3.00;;;2.80;;
17414;SDS011;8825;48.086;16.426;2023-07-29T00:42:48;3.17;;;2.97;;
17414;SDS011;8825;48.086;16.426;2023-07-29T00:45:16;3.30;;;3.00;;
17414;SDS011;8825;48.086;16.426;2023-07-29T00:47:44;3.23;;;3.00;;
17414;SDS011;8825;48.086;16.426;2023-07-29T00:50:13;3.33;;;3.03;;
17414;SDS011;8825;48.086;16.426;2023-07-29T00:52:42;3.07;;;2.80;;
17414;SDS011;8825;48.086;16.426;2023-07-29T00:55:09;2.93;;;2.60;;
17414;SDS011;8825;48.086;16.426;2023-07-29T00:57:37;3.40;;;3.10;;
17414;SDS011;8825;48.086;16.426;2023-07-29T01:00:06;3.40;;;3.07;;
17414;SDS011;8825;48.086;16.426;2023-07-29T01:02:34;2.93;;;2.60;;
17414;SDS011;8825;48.086;16.426;2023-07-29T01:05:02;3.30;;;2.50;;
17414;SDS011;8825;48.086;16.426;2023-07-29T01:07:36;3.23;;;2.93;;
17414;SDS011;8825;48.086;16.426;2023-07-29T01:15:34;4.40;;;2.77;;
17414;SDS011;8825;48.086;16.426;2023-07-29T01:18:17;3.00;;;2.80;;
17414;SDS011;8825;48.086;16.426;2023-07-29T01:20:42;3.20;;;2.90;;
17414;SDS011;8825;48.086;16.426;2023-07-29T01:23:12;2.90;;;2.70;;
17414;SDS011;8825;48.086;16.426;2023-07-29T01:25:40;3.10;;;2.90;;
17414;SDS011;8825;48.086;16.426;2023-07-29T01:28:07;2.80;;;2.60;;
17414;SDS011;8825;48.086;16.426;2023-07-29T01:30:37;3.10;;;2.80;;
17414;SDS011;8825;48.086;16.426;2023-07-29T01:33:16;3.00;;;2.80;;
17414;SDS011;8825;48.086;16.426;2023-07-29T01:35:58;3.20;;;3.00;;
17414;SDS011;8825;48.086;16.426;2023-07-29T01:38:32;2.93;;;2.73;;
17414;SDS011;8825;48.086;16.426;2023-07-29T01:41:06;3.07;;;2.73;;
17414;SDS011;8825;48.086;16.426;2023-07-29T01:43:35;3.77;;;3.47;;
17414;SDS011;8825;48.086;16.426;2023-07-29T01:46:10;3.30;;;3.00;;
17414;SDS011;8825;48.086;16.426;2023-07-29T01:48:38;3.17;;;2.90;;
17414;SDS011;8825;48.086;16.426;2023-07-29T01:51:06;3.07;;;2.87;;
17414;SDS011;8825;48.086;16.426;2023-07-29T01:53:35;2.90;;;2.70;;
17414;SDS011;8825;48.086;16.426;2023-07-29T01:56:02;2.90;;;2.70;;
17414;SDS011;8825;48.086;16.426;2023-07-29T01:58:30;3.57;;;2.90;;
17414;SDS011;8825;48.086;16.426;2023-07-29T02:00:57;2.77;;;2.57;;
17414;SDS011;8825;48.086;16.426;2023-07-29T02:03:25;3.17;;;2.97;;
17414;SDS011;8825;48.086;16.426;2023-07-29T02:05:52;2.90;;;2.70;;
17414;SDS011;8825;48.086;16.426;2023-07-29T02:08:20;2.97;;;2.77;;
17414;SDS011;8825;48.086;16.426;2023-07-29T02:10:47;2.77;;;2.57;;
17414;SDS011;8825;48.086;16.426;2023-07-29T02:13:15;3.10;;;2.90;;
17414;SDS011;8825;48.086;16.426;2023-07-29T02:15:42;2.90;;;2.50;;
17414;SDS011;8825;48.086;16.426;2023-07-29T02:18:10;3.07;;;2.77;;
17414;SDS011;8825;48.086;16.426;2023-07-29T02:20:37;3.10;;;2.80;;
17414;SDS011;8825;48.086;16.426;2023-07-29T02:23:05;3.27;;;2.97;;
17414;SDS011;8825;48.086;16.426;2023-07-29T02:25:34;4.03;;;3.63;;
17414;SDS011;8825;48.086;16.426;2023-07-29T02:28:02;3.50;;;3.20;;
17414;SDS011;8825;48.086;16.426;2023-07-29T02:30:30;3.30;;;3.00;;
17414;SDS011;8825;48.086;16.426;2023-07-29T02:32:57;3.63;;;3.33;;
17414;SDS011;8825;48.086;16.426;2023-07-29T02:35:27;3.77;;;3.20;;
17414;SDS011;8825;48.086;16.426;2023-07-29T02:37:54;3.40;;;3.03;;
17414;SDS011;8825;48.086;16.426;2023-07-29T02:40:22;2.90;;;2.70;;
17414;SDS011;8825;48.086;16.426;2023-07-29T02:42:51;3.00;;;2.80;;
17414;SDS011;8825;48.086;16.426;2023-07-29T02:45:19;2.60;;;2.40;;
17414;SDS011;8825;48.086;16.426;2023-07-29T02:47:46;3.27;;;2.93;;
17414;SDS011;8825;48.086;16.426;2023-07-29T02:50:14;2.50;;;2.30;;
17414;SDS011;8825;48.086;16.426;2023-07-29T02:52:41;2.80;;;2.47;;
17414;SDS011;8825;48.086;16.426;2023-07-29T02:55:09;2.90;;;2.60;;
17414;SDS011;8825;48.086;16.426;2023-07-29T02:57:36;3.30;;;2.53;;
17414;SDS011;8825;48.086;16.426;2023-07-29T03:00:04;2.70;;;2.50;;
17414;SDS011;8825;48.086;16.426;2023-07-29T03:02:33;2.87;;;2.60;;
17414;SDS011;8825;48.086;16.426;2023-07-29T03:05:00;2.87;;;2.33;;
17414;SDS011;8825;48.086;16.426;2023-07-29T03:07:29;3.30;;;3.00;;
17414;SDS011;8825;48.086;16.426;2023-07-29T03:09:56;3.87;;;3.30;;
17414;SDS011;8825;48.086;16.426;2023-07-29T03:12:24;3.73;;;3.37;;
17414;SDS011;8825;48.086;16.426;2023-07-29T03:14:52;3.80;;;3.40;;
17414;SDS011;8825;48.086;16.426;2023-07-29T03:17:19;3.00;;;2.80;;
17414;SDS011;8825;48.086;16.426;2023-07-29T03:19:47;3.50;;;3.20;;
17414;SDS011;8825;48.086;16.426;2023-07-29T03:22:15;3.20;;;2.97;;
17414;SDS011;8825;48.086;16.426;2023-07-29T03:24:43;3.17;;;2.87;;
17414;SDS011;8825;48.086;16.426;2023-07-29T03:27:10;3.07;;;2.87;;
17414;SDS011;8825;48.086;16.426;2023-07-29T03:29:39;3.30;;;3.00;;
17414;SDS011;8825;48.086;16.426;2023-07-29T03:32:06;3.23;;;2.93;;
17414;SDS011;8825;48.086;16.426;2023-07-29T03:34:34;3.20;;;2.90;;
17414;SDS011;8825;48.086;16.426;2023-07-29T03:37:02;3.93;;;3.10;;
17414;SDS011;8825;48.086;16.426;2023-07-29T03:39:29;2.53;;;2.33;;
17414;SDS011;8825;48.086;16.426;2023-07-29T03:41:57;3.00;;;2.80;;
17414;SDS011;8825;48.086;16.426;2023-07-29T03:44:25;3.27;;;2.60;;
17414;SDS011;8825;48.086;16.426;2023-07-29T03:46:52;3.00;;;2.80;;
17414;SDS011;8825;48.086;16.426;2023-07-29T03:49:20;4.03;;;2.80;;
17414;SDS011;8825;48.086;16.426;2023-07-29T03:51:47;3.33;;;3.03;;
17414;SDS011;8825;48.086;16.426;2023-07-29T03:54:15;3.70;;;3.40;;
17414;SDS011;8825;48.086;16.426;2023-07-29T03:56:42;4.37;;;3.40;;
17414;SDS011;8825;48.086;16.426;2023-07-29T03:59:10;4.43;;;3.33;;
17414;SDS011;8825;48.086;16.426;2023-07-29T04:01:37;3.33;;;3.03;;
17414;SDS011;8825;48.086;16.426;2023-07-29T04:04:05;3.13;;;2.93;;
17414;SDS011;8825;48.086;16.426;2023-07-29T04:06:32;3.50;;;3.20;;
17414;SDS011;8825;48.086;16.426;2023-07-29T04:09:00;3.50;;;3.20;;
17414;SDS011;8825;48.086;16.426;2023-07-29T04:11:28;3.03;;;2.83;;
17414;SDS011;8825;48.086;16.426;2023-07-29T04:13:55;3.37;;;3.07;;
17414;SDS011;8825;48.086;16.426;2023-07-29T04:16:23;2.87;;;2.67;;
17414;SDS011;8825;48.086;16.426;2023-07-29T04:18:50;3.03;;;2.73;;
17414;SDS011;8825;48.086;16.426;2023-07-29T04:21:18;2.77;;;2.47;;
17414;SDS011;8825;48.086;16.426;2023-07-29T04:23:45;2.70;;;2.50;;
17414;SDS011;8825;48.086;16.426;2023-07-29T04:26:13;2.90;;;2.70;;
17414;SDS011;8825;48.086;16.426;2023-07-29T04:28:41;3.40;;;3.10;;
17414;SDS011;8825;48.086;16.426;2023-07-29T04:31:09;3.90;;;3.13;;
17414;SDS011;8825;48.086;16.426;2023-07-29T04:33:36;3.30;;;3.00;;
17414;SDS011;8825;48.086;16.426;2023-07-29T04:36:04;3.53;;;3.23;;
17414;SDS011;8825;48.086;16.426;2023-07-29T04:38:32;3.40;;;3.10;;
17414;SDS011;8825;48.086;16.426;2023-07-29T04:41:00;3.13;;;2.83;;
17414;SDS011;8825;48.086;16.426;2023-07-29T04:43:29;3.07;;;2.77;;
17414;SDS011;8825;48.086;16.426;2023-07-29T04:45:58;3.63;;;2.80;;
17414;SDS011;8825;48.086;16.426;2023-07-29T04:48:25;2.73;;;2.53;;
17414;SDS011;8825;48.086;16.426;2023-07-29T04:50:53;4.33;;;2.20;;
17414;SDS011;8825;48.086;16.426;2023-07-29T04:53:20;2.53;;;2.33;;
17414;SDS011;8825;48.086;16.426;2023-07-29T04:55:48;3.50;;;2.20;;
17414;SDS011;8825;48.086;16.426;2023-07-29T04:58:15;2.53;;;2.33;;
17414;SDS011;8825;48.086;16.426;2023-07-29T05:00:43;2.57;;;2.37;;
17414;SDS011;8825;48.086;16.426;2023-07-29T05:03:12;2.30;;;2.10;;
17414;SDS011;8825;48.086;16.426;2023-07-29T05:05:39;2.33;;;2.13;;
17414;SDS011;8825;48.086;16.426;2023-07-29T05:08:07;2.60;;;2.40;;
17414;SDS011;8825;48.086;16.426;2023-07-29T05:10:34;2.30;;;2.10;;
17414;SDS011;8825;48.086;16.426;2023-07-29T05:13:02;2.60;;;2.40;;
17414;SDS011;8825;48.086;16.426;2023-07-29T05:15:30;2.47;;;2.27;;
17414;SDS011;8825;48.086;16.426;2023-07-29T05:17:57;2.20;;;2.00;;
17414;SDS011;8825;48.086;16.426;2023-07-29T05:20:24;1.97;;;1.87;;
17414;SDS011;8825;48.086;16.426;2023-07-29T05:22:52;2.23;;;2.03;;
17414;SDS011;8825;48.086;16.426;2023-07-29T05:25:19;2.10;;;1.93;;
17414;SDS011;8825;48.086;16.426;2023-07-29T05:27:47;2.10;;;1.90;;
17414;SDS011;8825;48.086;16.426;2023-07-29T05:30:14;2.20;;;2.00;;
17414;SDS011;8825;48.086;16.426;2023-07-29T05:32:42;2.30;;;2.10;;
17414;SDS011;8825;48.086;16.426;2023-07-29T05:35:10;2.20;;;2.00;;
17414;SDS011;8825;48.086;16.426;2023-07-29T05:37:38;2.10;;;1.90;;
17414;SDS011;8825;48.086;16.426;2023-07-29T05:40:07;2.13;;;2.00;;
17414;SDS011;8825;48.086;16.426;2023-07-29T05:42:35;2.10;;;1.90;;
17414;SDS011;8825;48.086;16.426;2023-07-29T05:45:03;2.00;;;1.80;;
17414;SDS011;8825;48.086;16.426;2023-07-29T05:47:31;1.70;;;1.60;;
17414;SDS011;8825;48.086;16.426;2023-07-29T05:49:58;1.70;;;1.60;;
17414;SDS011;8825;48.086;16.426;2023-07-29T05:52:27;1.83;;;1.73;;
17414;SDS011;8825;48.086;16.426;2023-07-29T05:54:55;2.03;;;1.70;;
17414;SDS011;8825;48.086;16.426;2023-07-29T05:57:22;1.67;;;1.57;;
17414;SDS011;8825;48.086;16.426;2023-07-29T05:59:50;2.03;;;1.87;;
17414;SDS011;8825;48.086;16.426;2023-07-29T06:02:17;2.27;;;2.07;;
17414;SDS011;8825;48.086;16.426;2023-07-29T06:04:45;1.87;;;1.77;;
17414;SDS011;8825;48.086;16.426;2023-07-29T06:07:13;1.83;;;1.73;;
17414;SDS011;8825;48.086;16.426;2023-07-29T06:09:40;1.70;;;1.60;;
17414;SDS011;8825;48.086;16.426;2023-07-29T06:12:08;2.00;;;1.90;;
17414;SDS011;8825;48.086;16.426;2023-07-29T06:14:35;1.70;;;1.60;;
17414;SDS011;8825;48.086;16.426;2023-07-29T06:17:03;2.20;;;1.53;;
17414;SDS011;8825;48.086;16.426;2023-07-29T06:19:32;1.70;;;1.60;;
17414;SDS011;8825;48.086;16.426;2023-07-29T06:22:00;2.10;;;1.90;;
17414;SDS011;8825;48.086;16.426;2023-07-29T06:24:27;1.70;;;1.60;;
17414;SDS011;8825;48.086;16.426;2023-07-29T06:26:55;1.70;;;1.60;;
17414;SDS011;8825;48.086;16.426;2023-07-29T06:29:22;2.07;;;1.73;;
17414;SDS011;8825;48.086;16.426;2023-07-29T06:31:50;2.10;;;1.90;;
17414;SDS011;8825;48.086;16.426;2023-07-29T06:34:17;1.90;;;1.80;;
17414;SDS011;8825;48.086;16.426;2023-07-29T06:36:45;1.60;;;1.50;;
17414;SDS011;8825;48.086;16.426;2023-07-29T06:39:13;1.40;;;1.30;;
17414;SDS011;8825;48.086;16.426;2023-07-29T06:41:40;1.50;;;1.40;;
17414;SDS011;8825;48.086;16.426;2023-07-29T06:44:08;1.40;;;1.30;;
17414;SDS011;8825;48.086;16.426;2023-07-29T06:46:35;1.50;;;1.40;;
17414;SDS011;8825;48.086;16.426;2023-07-29T06:49:03;1.70;;;1.60;;
17414;SDS011;8825;48.086;16.426;2023-07-29T06:51:31;1.77;;;1.67;;
17414;SDS011;8825;48.086;16.426;2023-07-29T06:54:03;1.60;;;1.50;;
17414;SDS011;8825;48.086;16.426;2023-07-29T06:56:31;1.90;;;1.60;;
17414;SDS011;8825;48.086;16.426;2023-07-29T06:58:59;1.70;;;1.60;;
17414;SDS011;8825;48.086;16.426;2023-07-29T07:01:26;1.60;;;1.50;;
17414;SDS011;8825;48.086;16.426;2023-07-29T07:03:54;1.77;;;1.67;;
17414;SDS011;8825;48.086;16.426;2023-07-29T07:06:23;1.80;;;1.70;;
17414;SDS011;8825;48.086;16.426;2023-07-29T07:08:51;1.60;;;1.50;;
17414;SDS011;8825;48.086;16.426;2023-07-29T07:11:18;1.60;;;1.50;;
17414;SDS011;8825;48.086;16.426;2023-07-29T07:13:46;1.83;;;1.70;;
17414;SDS011;8825;48.086;16.426;2023-07-29T07:16:13;1.90;;;1.80;;
17414;SDS011;8825;48.086;16.426;2023-07-29T07:18:41;1.87;;;1.77;;
17414;SDS011;8825;48.086;16.426;2023-07-29T07:21:08;2.03;;;1.90;;
17414;SDS011;8825;48.086;16.426;2023-07-29T07:23:36;1.83;;;1.73;;
17414;SDS011;8825;48.086;16.426;2023-07-29T07:26:05;2.40;;;1.83;;
17414;SDS011;8825;48.086;16.426;2023-07-29T07:28:32;2.30;;;2.10;;
17414;SDS011;8825;48.086;16.426;2023-07-29T07:31:00;4.50;;;2.40;;
17414;SDS011;8825;48.086;16.426;2023-07-29T07:33:27;1.60;;;1.50;;
17414;SDS011;8825;48.086;16.426;2023-07-29T07:35:55;3.83;;;2.17;;
17414;SDS011;8825;48.086;16.426;2023-07-29T07:38:22;1.90;;;1.80;;
17414;SDS011;8825;48.086;16.426;2023-07-29T07:40:56;2.43;;;2.07;;
17414;SDS011;8825;48.086;16.426;2023-07-29T07:43:24;2.10;;;1.90;;
17414;SDS011;8825;48.086;16.426;2023-07-29T07:45:56;1.77;;;1.67;;
17414;SDS011;8825;48.086;16.426;2023-07-29T07:48:27;1.90;;;1.80;;
17414;SDS011;8825;48.086;16.426;2023-07-29T07:50:55;2.10;;;1.90;;
17414;SDS011;8825;48.086;16.426;2023-07-29T07:53:22;1.67;;;1.57;;
17414;SDS011;8825;48.086;16.426;2023-07-29T07:55:51;1.60;;;1.50;;
17414;SDS011;8825;48.086;16.426;2023-07-29T07:58:19;1.50;;;1.40;;
17414;SDS011;8825;48.086;16.426;2023-07-29T08:00:46;1.83;;;1.73;;
17414;SDS011;8825;48.086;16.426;2023-07-29T08:03:14;1.97;;;1.70;;
17414;SDS011;8825;48.086;16.426;2023-07-29T08:05:41;1.60;;;1.50;;
17414;SDS011;8825;48.086;16.426;2023-07-29T08:08:09;1.80;;;1.50;;
17414;SDS011;8825;48.086;16.426;2023-07-29T08:10:36;1.70;;;1.60;;
17414;SDS011;8825;48.086;16.426;2023-07-29T08:13:04;1.70;;;1.60;;
17414;SDS011;8825;48.086;16.426;2023-07-29T08:15:31;2.23;;;1.70;;
17414;SDS011;8825;48.086;16.426;2023-07-29T08:17:59;1.70;;;1.60;;
17414;SDS011;8825;48.086;16.426;2023-07-29T08:20:26;1.50;;;1.40;;
17414;SDS011;8825;48.086;16.426;2023-07-29T08:22:54;1.70;;;1.60;;
17414;SDS011;8825;48.086;16.426;2023-07-29T08:25:21;1.80;;;1.70;;
17414;SDS011;8825;48.086;16.426;2023-07-29T08:27:49;1.70;;;1.60;;
17414;SDS011;8825;48.086;16.426;2023-07-29T08:30:17;1.63;;;1.50;;
17414;SDS011;8825;48.086;16.426;2023-07-29T08:32:45;1.80;;;1.70;;
17414;SDS011;8825;48.086;16.426;2023-07-29T08:35:12;2.10;;;1.90;;
17414;SDS011;8825;48.086;16.426;2023-07-29T08:37:40;1.80;;;1.70;;
17414;SDS011;8825;48.086;16.426;2023-07-29T08:40:08;1.70;;;1.60;;
17414;SDS011;8825;48.086;16.426;2023-07-29T08:42:35;1.60;;;1.50;;
17414;SDS011;8825;48.086;16.426;2023-07-29T08:45:06;1.60;;;1.50;;
17414;SDS011;8825;48.086;16.426;2023-07-29T08:47:34;1.50;;;1.40;;
17414;SDS011;8825;48.086;16.426;2023-07-29T08:50:02;1.50;;;1.40;;
17414;SDS011;8825;48.086;16.426;2023-07-29T08:52:31;1.50;;;1.40;;
17414;SDS011;8825;48.086;16.426;2023-07-29T08:55:00;1.60;;;1.50;;
17414;SDS011;8825;48.086;16.426;2023-07-29T08:57:28;1.50;;;1.40;;
17414;SDS011;8825;48.086;16.426;2023-07-29T08:59:57;1.60;;;1.50;;
17414;SDS011;8825;48.086;16.426;2023-07-29T09:02:25;2.50;;;1.53;;
17414;SDS011;8825;48.086;16.426;2023-07-29T09:04:53;1.83;;;1.60;;
17414;SDS011;8825;48.086;16.426;2023-07-29T09:07:20;1.60;;;1.50;;
17414;SDS011;8825;48.086;16.426;2023-07-29T09:09:48;1.80;;;1.70;;
17414;SDS011;8825;48.086;16.426;2023-07-29T09:12:16;1.60;;;1.50;;
17414;SDS011;8825;48.086;16.426;2023-07-29T09:14:43;1.70;;;1.60;;
17414;SDS011;8825;48.086;16.426;2023-07-29T09:17:11;1.80;;;1.50;;
17414;SDS011;8825;48.086;16.426;2023-07-29T09:19:39;2.30;;;1.77;;
17414;SDS011;8825;48.086;16.426;2023-07-29T09:22:09;7.10;;;2.10;;
17414;SDS011;8825;48.086;16.426;2023-07-29T09:24:37;2.13;;;1.93;;
17414;SDS011;8825;48.086;16.426;2023-07-29T09:27:04;3.37;;;2.20;;
17414;SDS011;8825;48.086;16.426;2023-07-29T09:29:35;2.33;;;2.03;;
17414;SDS011;8825;48.086;16.426;2023-07-29T09:32:17;2.80;;;1.97;;
17414;SDS011;8825;48.086;16.426;2023-07-29T09:34:44;4.37;;;2.03;;
17414;SDS011;8825;48.086;16.426;2023-07-29T09:37:16;3.30;;;2.07;;
17414;SDS011;8825;48.086;16.426;2023-07-29T09:39:45;2.30;;;2.10;;
17414;SDS011;8825;48.086;16.426;2023-07-29T09:42:19;1.60;;;1.50;;
17414;SDS011;8825;48.086;16.426;2023-07-29T09:44:49;2.43;;;1.90;;
17414;SDS011;8825;48.086;16.426;2023-07-29T09:47:20;1.80;;;1.70;;
17414;SDS011;8825;48.086;16.426;2023-07-29T09:49:49;1.80;;;1.70;;
17414;SDS011;8825;48.086;16.426;2023-07-29T09:52:18;1.60;;;1.40;;
17414;SDS011;8825;48.086;16.426;2023-07-29T09:54:48;1.80;;;1.70;;
17414;SDS011;8825;48.086;16.426;2023-07-29T09:57:16;8.33;;;2.23;;
17414;SDS011;8825;48.086;16.426;2023-07-29T09:59:54;3.33;;;1.83;;
17414;SDS011;8825;48.086;16.426;2023-07-29T10:02:22;1.53;;;1.43;;
17414;SDS011;8825;48.086;16.426;2023-07-29T10:07:39;1.97;;;1.87;;
17414;SDS011;8825;48.086;16.426;2023-07-29T10:10:07;1.70;;;1.60;;
17414;SDS011;8825;48.086;16.426;2023-07-29T10:12:35;1.70;;;1.60;;
17414;SDS011;8825;48.086;16.426;2023-07-29T10:15:03;1.90;;;1.80;;
17414;SDS011;8825;48.086;16.426;2023-07-29T10:17:33;1.70;;;1.60;;
17414;SDS011;8825;48.086;16.426;2023-07-29T10:20:06;3.00;;;2.17;;
17414;SDS011;8825;48.086;16.426;2023-07-29T10:22:36;2.33;;;2.13;;
17414;SDS011;8825;48.086;16.426;2023-07-29T10:25:09;2.20;;;1.93;;
17414;SDS011;8825;48.086;16.426;2023-07-29T10:27:47;2.27;;;2.00;;
17414;SDS011;8825;48.086;16.426;2023-07-29T10:30:12;2.07;;;1.97;;
17414;SDS011;8825;48.086;16.426;2023-07-29T10:32:43;2.47;;;2.27;;
17414;SDS011;8825;48.086;16.426;2023-07-29T10:35:13;2.43;;;2.17;;
17414;SDS011;8825;48.086;16.426;2023-07-29T10:37:41;2.10;;;1.90;;
17414;SDS011;8825;48.086;16.426;2023-07-29T10:40:11;2.73;;;2.53;;
17414;SDS011;8825;48.086;16.426;2023-07-29T10:42:39;2.60;;;2.40;;
17414;SDS011;8825;48.086;16.426;2023-07-29T10:45:29;2.80;;;2.60;;
17414;SDS011;8825;48.086;16.426;2023-07-29T10:47:46;2.60;;;2.40;;
17414;SDS011;8825;48.086;16.426;2023-07-29T10:50:18;2.40;;;2.20;;
17414;SDS011;8825;48.086;16.426;2023-07-29T10:52:51;2.50;;;2.30;;
17414;SDS011;8825;48.086;16.426;2023-07-29T10:55:26;2.40;;;2.20;;
17414;SDS011;8825;48.086;16.426;2023-07-29T11:00:35;2.77;;;2.57;;
17414;SDS011;8825;48.086;16.426;2023-07-29T11:03:04;2.80;;;2.50;;
17414;SDS011;8825;48.086;16.426;2023-07-29T11:05:46;2.80;;;2.60;;
17414;SDS011;8825;48.086;16.426;2023-07-29T11:11:06;2.37;;;2.17;;
17414;SDS011;8825;48.086;16.426;2023-07-29T11:13:36;2.57;;;2.37;;
17414;SDS011;8825;48.086;16.426;2023-07-29T11:16:04;2.50;;;2.30;;
17414;SDS011;8825;48.086;16.426;2023-07-29T11:18:33;2.63;;;2.43;;
17414;SDS011;8825;48.086;16.426;2023-07-29T11:21:04;2.93;;;2.50;;
17414;SDS011;8825;48.086;16.426;2023-07-29T11:23:33;2.50;;;2.30;;
17414;SDS011;8825;48.086;16.426;2023-07-29T11:26:02;2.67;;;2.47;;
17414;SDS011;8825;48.086;16.426;2023-07-29T11:28:31;2.70;;;2.50;;
17414;SDS011;8825;48.086;16.426;2023-07-29T11:31:01;2.70;;;2.50;;
17414;SDS011;8825;48.086;16.426;2023-07-29T11:33:29;2.80;;;2.40;;
17414;SDS011;8825;48.086;16.426;2023-07-29T11:35:56;2.40;;;2.20;;
17414;SDS011;8825;48.086;16.426;2023-07-29T11:38:24;2.83;;;2.60;;
17414;SDS011;8825;48.086;16.426;2023-07-29T11:40:55;2.67;;;2.10;;
17414;SDS011;8825;48.086;16.426;2023-07-29T11:43:25;2.30;;;2.10;;
17414;SDS011;8825;48.086;16.426;2023-07-29T11:45:53;2.33;;;2.13;;
17414;SDS011;8825;48.086;16.426;2023-07-29T11:48:27;2.40;;;2.20;;
17414;SDS011;8825;48.086;16.426;2023-07-29T11:50:56;2.30;;;2.10;;
17414;SDS011;8825;48.086;16.426;2023-07-29T11:53:30;3.40;;;2.03;;
17414;SDS011;8825;48.086;16.426;2023-07-29T11:55:58;2.17;;;2.03;;
17414;SDS011;8825;48.086;16.426;2023-07-29T11:58:26;2.50;;;2.20;;
17414;SDS011;8825;48.086;16.426;2023-07-29T12:00:54;2.53;;;2.23;;
17414;SDS011;8825;48.086;16.426;2023-07-29T12:03:22;2.50;;;2.30;;
17414;SDS011;8825;48.086;16.426;2023-07-29T12:05:50;2.63;;;2.43;;
17414;SDS011;8825;48.086;16.426;2023-07-29T12:08:18;2.60;;;2.40;;
17414;SDS011;8825;48.086;16.426;2023-07-29T12:10:46;2.40;;;2.20;;
17414;SDS011;8825;48.086;16.426;2023-07-29T12:13:14;2.33;;;2.13;;
17414;SDS011;8825;48.086;16.426;2023-07-29T12:15:42;2.80;;;2.60;;
17414;SDS011;8825;48.086;16.426;2023-07-29T12:18:09;2.40;;;2.20;;
17414;SDS011;8825;48.086;16.426;2023-07-29T12:20:38;2.90;;;2.40;;
17414;SDS011;8825;48.086;16.426;2023-07-29T12:23:06;2.70;;;2.50;;
17414;SDS011;8825;48.086;16.426;2023-07-29T12:25:34;2.70;;;2.50;;
17414;SDS011;8825;48.086;16.426;2023-07-29T12:28:05;2.27;;;2.07;;
17414;SDS011;8825;48.086;16.426;2023-07-29T12:30:33;2.50;;;2.30;;
17414;SDS011;8825;48.086;16.426;2023-07-29T12:33:00;2.70;;;2.50;;
17414;SDS011;8825;48.086;16.426;2023-07-29T12:35:37;2.50;;;2.30;;
17414;SDS011;8825;48.086;16.426;2023-07-29T12:38:05;2.53;;;2.33;;
17414;SDS011;8825;48.086;16.426;2023-07-29T12:40:37;2.70;;;2.50;;
17414;SDS011;8825;48.086;16.426;2023-07-29T12:43:03;2.10;;;1.90;;
17414;SDS011;8825;48.086;16.426;2023-07-29T12:45:35;2.50;;;2.30;;
17414;SDS011;8825;48.086;16.426;2023-07-29T12:48:05;2.77;;;2.53;;
17414;SDS011;8825;48.086;16.426;2023-07-29T12:50:32;2.50;;;2.30;;
17414;SDS011;8825;48.086;16.426;2023-07-29T12:53:00;2.43;;;2.23;;
17414;SDS011;8825;48.086;16.426;2023-07-29T12:55:27;2.60;;;2.20;;
17414;SDS011;8825;48.086;16.426;2023-07-29T12:57:55;3.57;;;3.27;;
17414;SDS011;8825;48.086;16.426;2023-07-29T13:00:24;2.80;;;2.60;;
17414;SDS011;8825;48.086;16.426;2023-07-29T13:02:52;2.90;;;2.70;;
17414;SDS011;8825;48.086;16.426;2023-07-29T13:05:19;2.50;;;2.30;;
17414;SDS011;8825;48.086;16.426;2023-07-29T13:07:47;2.47;;;2.27;;
17414;SDS011;8825;48.086;16.426;2023-07-29T13:10:15;3.40;;;2.87;;
17414;SDS011;8825;48.086;16.426;2023-07-29T13:12:42;3.23;;;2.93;;
17414;SDS011;8825;48.086;16.426;2023-07-29T13:15:10;2.50;;;2.30;;
17414;SDS011;8825;48.086;16.426;2023-07-29T13:17:37;2.50;;;2.30;;
17414;SDS011;8825;48.086;16.426;2023-07-29T13:20:05;1.70;;;1.60;;
17414;SDS011;8825;48.086;16.426;2023-07-29T13:22:33;2.57;;;2.00;;
17414;SDS011;8825;48.086;16.426;2023-07-29T13:25:01;2.40;;;2.20;;
17414;SDS011;8825;48.086;16.426;2023-07-29T13:27:29;2.20;;;2.00;;
17414;SDS011;8825;48.086;16.426;2023-07-29T13:29:56;1.83;;;1.60;;
17414;SDS011;8825;48.086;16.426;2023-07-29T13:32:24;2.30;;;2.10;;
17414;SDS011;8825;48.086;16.426;2023-07-29T13:34:51;2.60;;;2.40;;
17414;SDS011;8825;48.086;16.426;2023-07-29T13:37:19;2.40;;;2.20;;
17414;SDS011;8825;48.086;16.426;2023-07-29T13:39:46;5.07;;;4.67;;
17414;SDS011;8825;48.086;16.426;2023-07-29T13:42:13;5.20;;;4.80;;
17414;SDS011;8825;48.086;16.426;2023-07-29T13:44:41;3.10;;;2.90;;
17414;SDS011;8825;48.086;16.426;2023-07-29T13:47:08;2.40;;;2.20;;
17414;SDS011;8825;48.086;16.426;2023-07-29T13:49:36;2.80;;;2.60;;
17414;SDS011;8825;48.086;16.426;2023-07-29T13:52:04;2.70;;;2.50;;
17414;SDS011;8825;48.086;16.426;2023-07-29T13:54:31;2.40;;;2.20;;
17414;SDS011;8825;48.086;16.426;2023-07-29T13:56:59;2.47;;;1.77;;
17414;SDS011;8825;48.086;16.426;2023-07-29T13:59:26;3.10;;;2.80;;
17414;SDS011;8825;48.086;16.426;2023-07-29T14:01:54;2.63;;;2.20;;
17414;SDS011;8825;48.086;16.426;2023-07-29T14:04:21;2.90;;;2.70;;
17414;SDS011;8825;48.086;16.426;2023-07-29T14:06:49;2.80;;;2.60;;
17414;SDS011;8825;48.086;16.426;2023-07-29T14:09:16;2.03;;;1.83;;
17414;SDS011;8825;48.086;16.426;2023-07-29T14:11:44;2.13;;;1.93;;
17414;SDS011;8825;48.086;16.426;2023-07-29T14:14:11;2.00;;;1.90;;
17414;SDS011;8825;48.086;16.426;2023-07-29T14:16:39;1.77;;;1.67;;
17414;SDS011;8825;48.086;16.426;2023-07-29T14:19:06;2.27;;;1.70;;
17414;SDS011;8825;48.086;16.426;2023-07-29T14:21:34;1.70;;;1.60;;
17414;SDS011;8825;48.086;16.426;2023-07-29T14:24:01;2.27;;;1.97;;
17414;SDS011;8825;48.086;16.426;2023-07-29T14:26:29;2.20;;;2.00;;
17414;SDS011;8825;48.086;16.426;2023-07-29T14:28:56;1.80;;;1.70;;
17414;SDS011;8825;48.086;16.426;2023-07-29T14:31:24;1.87;;;1.77;;
17414;SDS011;8825;48.086;16.426;2023-07-29T14:33:51;2.20;;;2.00;;
17414;SDS011;8825;48.086;16.426;2023-07-29T14:36:19;1.83;;;1.73;;
17414;SDS011;8825;48.086;16.426;2023-07-29T14:38:46;2.47;;;1.90;;
17414;SDS011;8825;48.086;16.426;2023-07-29T14:41:14;2.40;;;2.00;;
17414;SDS011;8825;48.086;16.426;2023-07-29T14:43:41;2.47;;;2.10;;
17414;SDS011;8825;48.086;16.426;2023-07-29T14:46:09;2.43;;;1.70;;
17414;SDS011;8825;48.086;16.426;2023-07-29T14:48:36;2.10;;;1.63;;
17414;SDS011;8825;48.086;16.426;2023-07-29T14:51:04;1.93;;;1.80;;
17414;SDS011;8825;48.086;16.426;2023-07-29T14:53:31;1.90;;;1.70;;
17414;SDS011;8825;48.086;16.426;2023-07-29T14:55:59;2.07;;;1.87;;
17414;SDS011;8825;48.086;16.426;2023-07-29T14:58:26;1.63;;;1.53;;
17414;SDS011;8825;48.086;16.426;2023-07-29T15:00:54;1.80;;;1.70;;
17414;SDS011;8825;48.086;16.426;2023-07-29T15:03:23;1.93;;;1.73;;
17414;SDS011;8825;48.086;16.426;2023-07-29T15:05:51;1.50;;;1.40;;
17414;SDS011;8825;48.086;16.426;2023-07-29T15:08:18;2.17;;;2.00;;